Time;durP1;ratioP1;P1;durP2;ratioP2;P2;SDS_P1;SDS_P2;PMS_P1;PMS_P2;Temp;Humidity;BMP_temperature;BMP_pressure;BME280_temperature;BME280_humidity;BME280_pressure;Samples;Min_cycle;Max_cycle;Signal;HPM_P1;HPM_P2
2023/04/02 00:00:09;;;;;;;21.90;19.50;;;;;;;8.61;100.00;97834.24;109196;1253;60771;-74
2023/04/02 00:03:02;;;;;;;19.20;17.10;;;;;;;8.61;100.00;97836.37;109457;1253;66570;-75
2023/04/02 00:05:48;;;;;;;20.50;17.40;;;;;;;8.61;100.00;97835.33;109153;1252;58967;-74
2023/04/02 00:08:22;;;;;;;18.70;16.60;;;;;;;8.61;100.00;97835.83;109467;1255;58876;-74
2023/04/02 00:10:53;;;;;;;20.10;17.00;;;;;;;8.62;100.00;97838.44;109505;1253;66706;-75
2023/04/02 00:13:30;;;;;;;19.90;17.80;;;;;;;8.62;100.00;97840.92;109466;1252;60934;-75
2023/04/02 00:15:57;;;;;;;18.40;16.40;;;;;;;8.63;100.00;97839.75;109460;1255;63714;-75
2023/04/02 00:18:25;;;;;;;20.30;17.00;;;;;;;8.63;100.00;97839.40;109499;1254;58906;-75
2023/04/02 00:21:05;;;;;;;23.10;18.30;;;;;;;8.63;100.00;97844.02;109521;1253;59048;-74
2023/04/02 00:23:36;;;;;;;22.20;18.60;;;;;;;8.62;100.00;97844.39;109488;1252;65599;-75
2023/04/02 00:26:18;;;;;;;20.40;18.20;;;;;;;8.62;100.00;97843.91;109396;1254;59565;-74
2023/04/02 00:28:45;;;;;;;21.30;19.10;;;;;;;8.62;100.00;97845.52;109490;1253;64763;-74
2023/04/02 00:31:12;;;;;;;21.60;18.60;;;;;;;8.61;100.00;97846.62;109478;1254;58950;-76
2023/04/02 00:33:41;;;;;;;22.70;19.10;;;;;;;8.60;100.00;97845.69;109500;1253;59933;-75
2023/04/02 00:36:08;;;;;;;23.30;20.30;;;;;;;8.60;100.00;97845.69;109310;1253;66998;-75
2023/04/02 00:38:34;;;;;;;24.70;20.80;;;;;;;8.59;100.00;97848.70;109212;1252;59420;-75
2023/04/02 00:41:03;;;;;;;22.40;19.90;;;;;;;8.56;100.00;97847.50;109446;1254;63712;-75
2023/04/02 00:43:35;;;;;;;22.10;19.70;;;;;;;8.55;100.00;97848.84;109439;1254;58926;-74
2023/04/02 00:46:09;;;;;;;23.10;20.40;;;;;;;8.53;100.00;97852.68;109184;1253;59002;-74
2023/04/02 00:48:46;;;;;;;23.70;19.70;;;;;;;8.52;100.00;97849.41;109460;1253;65990;-75
2023/04/02 00:51:21;;;;;;;23.80;19.60;;;;;;;8.50;100.00;97850.98;109316;1254;60754;-74
2023/04/02 00:53:51;;;;;;;23.50;20.90;;;;;;;8.48;100.00;97851.88;109399;1254;64751;-74
2023/04/02 00:56:40;;;;;;;23.00;20.50;;;;;;;8.46;100.00;97856.44;109463;1251;59027;-74
2023/04/02 00:59:30;;;;;;;24.10;21.40;;;;;;;8.46;100.00;97856.97;109482;1253;59164;-73
2023/04/02 01:02:21;;;;;;;;;;;;;;;8.45;100.00;97857.73;109199;1253;65687;-73
2023/04/02 01:05:18;;;;;;;23.60;20.90;;;;;;;8.44;100.00;97861.04;108855;1261;60116;-74
2023/04/02 01:08:03;;;;;;;24.70;22.00;;;;;;;8.43;100.00;97861.26;108777;1260;63813;-74
2023/04/02 01:10:58;;;;;;;28.30;24.00;;;;;;;8.44;100.00;97862.09;108844;1261;59362;-74
2023/04/02 01:14:06;;;;;;;31.30;25.80;;;;;;;8.43;100.00;97862.88;108937;1259;59248;-74
2023/04/02 01:16:49;;;;;;;33.90;27.20;;;;;;;8.44;100.00;97862.66;108488;1267;66745;-74
2023/04/02 01:19:30;;;;;;;38.50;30.20;;;;;;;8.44;100.00;97862.46;108514;1267;59832;-74
2023/04/02 01:22:03;;;;;;;37.10;30.50;;;;;;;8.44;100.00;97863.30;108491;1267;63853;-74
2023/04/02 01:24:33;;;;;;;38.70;33.00;;;;;;;8.45;100.00;97864.13;108460;1267;59285;-74
2023/04/02 01:27:19;;;;;;;42.90;36.30;;;;;;;8.47;100.00;97865.75;108501;1267;59128;-74
2023/04/02 01:29:52;;;;;;;43.40;36.70;;;;;;;8.49;100.00;97865.44;108506;1268;65791;-74
2023/04/02 01:32:21;;;;;;;40.00;35.70;;;;;;;8.50;100.00;97864.30;108494;1267;59692;-74
2023/04/02 01:34:50;;;;;;;39.20;33.90;;;;;;;8.50;100.00;97867.77;108319;1270;64312;-74
2023/04/02 01:37:33;;;;;;;41.00;33.30;;;;;;;8.51;100.00;97870.41;108490;1267;59054;-74
2023/04/02 01:40:28;;;;;;;40.10;33.20;;;;;;;8.51;100.00;97869.65;108479;1267;59190;-74
2023/04/02 01:43:21;;;;;;;38.80;33.70;;;;;;;8.53;100.00;97872.92;108475;1266;65735;-74
2023/04/02 01:45:48;;;;;;;42.70;36.70;;;;;;;8.54;100.00;97874.02;108595;1266;60804;-74
2023/04/02 01:48:18;;;;;;;44.90;37.50;;;;;;;8.56;100.00;97876.59;108550;1266;64766;-74
2023/04/02 01:50:48;;;;;;;49.90;40.10;;;;;;;8.58;100.00;97876.79;108557;1265;59433;-74
2023/04/02 01:53:17;;;;;;;48.60;40.10;;;;;;;8.59;100.00;97877.55;108696;1260;59073;-74
2023/04/02 01:55:47;;;;;;;54.70;43.80;;;;;;;8.60;100.00;97876.95;108848;1260;67053;-74
2023/04/02 01:58:18;;;;;;;52.60;44.00;;;;;;;8.62;100.00;97880.39;108831;1260;60853;-75
2023/04/02 02:00:50;;;;;;;52.80;42.40;;;;;;;8.62;100.00;97878.39;108799;1260;63692;-74
2023/04/02 02:03:18;;;;;;;49.80;42.50;;;;;;;8.62;100.00;97877.33;108664;1261;59149;-74
2023/04/02 02:05:45;;;;;;;53.20;43.40;;;;;;;8.62;100.00;97880.70;108835;1260;59031;-74
2023/04/02 02:08:40;;;;;;;50.60;42.90;;;;;;;8.63;100.00;97879.75;108847;1260;66696;-74
2023/04/02 02:11:15;;;;;;;54.00;44.70;;;;;;;8.64;100.00;97880.95;108369;1270;60765;-74
2023/04/02 02:13:50;;;;;;;57.10;44.80;;;;;;;8.63;100.00;97883.98;108374;1268;63781;-74
2023/04/02 02:16:18;;;;;;;53.00;43.00;;;;;;;8.64;100.00;97884.27;108347;1268;59202;-74
2023/04/02 02:18:49;;;;;;;49.80;42.40;;;;;;;8.64;100.00;97886.77;108376;1268;60130;-74
2023/04/02 02:21:47;;;;;;;53.50;43.50;;;;;;;8.64;100.00;97889.42;108851;1260;66729;-74
2023/04/02 02:24:22;;;;;;;48.50;41.00;;;;;;;8.64;100.00;97891.00;108539;1267;60861;-74
2023/04/02 02:27:02;;;;;;;50.20;41.70;;;;;;;8.62;100.00;97891.86;108212;1267;62555;-74
2023/04/02 02:29:35;;;;;;;54.80;45.40;;;;;;;8.62;100.00;97892.79;108473;1267;58962;-74
2023/04/02 02:32:04;;;;;;;58.30;49.20;;;;;;;8.62;100.00;97893.81;108509;1267;59273;-73
2023/04/02 02:34:40;;;;;;;57.30;49.00;;;;;;;8.63;100.00;97897.84;108507;1268;65665;-74
2023/04/02 02:37:20;;;;;;;61.00;50.30;;;;;;;8.62;100.00;97899.52;108506;1267;61494;-74
2023/04/02 02:39:52;;;;;;;59.30;48.80;;;;;;;8.61;100.00;97897.63;108497;1267;65036;-74
2023/04/02 02:42:30;;;;;;;61.40;51.40;;;;;;;8.60;100.00;97897.49;108496;1266;59424;-74
2023/04/02 02:45:00;;;;;;;66.60;53.00;;;;;;;8.61;100.00;97901.36;108505;1267;59295;-74
2023/04/02 02:47:37;;;;;;;65.80;53.80;;;;;;;8.60;100.00;97902.27;108536;1267;67309;-74
2023/04/02 02:50:09;;;;;;;62.60;50.10;;;;;;;8.58;100.00;97901.19;108914;1259;59745;-74
2023/04/02 02:52:37;;;;;;;63.00;52.20;;;;;;;8.57;100.00;97904.61;108682;1260;62460;-73
2023/04/02 02:55:09;;;;;;;68.40;57.30;;;;;;;8.57;100.00;97908.91;108910;1260;59474;-74
2023/04/02 02:57:46;;;;;;;77.20;61.50;;;;;;;8.56;100.00;97909.84;108961;1259;59176;-74
2023/04/02 03:00:15;;;;;;;66.80;57.10;;;;;;;8.57;100.00;97909.08;108994;1254;65879;-74
2023/04/02 03:02:42;;;;;;;70.60;55.80;;;;;;;8.59;100.00;97908.23;109564;1251;61215;-75
2023/04/02 03:05:16;;;;;;;69.90;55.50;;;;;;;8.59;100.00;97904.65;109524;1251;64790;-75
2023/04/02 03:07:43;;;;;;;70.50;54.80;;;;;;;8.57;100.00;97903.73;109507;1251;58972;-74
2023/04/02 03:10:29;;;;;;;70.40;54.40;;;;;;;8.54;100.00;97902.55;109554;1251;58938;-74
2023/04/02 03:13:09;;;;;;;71.00;55.70;;;;;;;8.52;100.00;97906.08;109152;1252;65662;-74
2023/04/02 03:15:54;;;;;;;;;;;;;;;8.51;100.00;97909.88;109475;1254;60933;-73
2023/04/02 03:18:47;;;;;;;72.10;56.60;;;;;;;8.50;100.00;97910.12;109553;1253;63819;-74
2023/04/02 03:21:30;;;;;;;70.50;54.80;;;;;;;8.51;100.00;97915.52;109491;1254;59028;-74
2023/04/02 03:24:02;;;;;;;70.10;56.60;;;;;;;8.52;100.00;97915.98;109175;1253;59015;-74
2023/04/02 03:26:36;;;;;;;71.90;55.70;;;;;;;8.53;100.00;97918.37;109490;1252;66086;-74
2023/04/02 03:29:15;;;;;;;72.40;56.60;;;;;;;8.55;100.00;97918.95;109485;1253;59821;-74
2023/04/02 03:32:11;;;;;;;72.00;55.30;;;;;;;8.55;100.00;97925.31;109432;1253;64856;-74
2023/04/02 03:34:46;;;;;;;72.30;55.30;;;;;;;8.54;100.00;97929.25;109468;1253;59068;-74
2023/04/02 03:37:19;;;;;;;68.40;54.00;;;;;;;8.56;100.00;97933.20;109487;1253;59128;-74
2023/04/02 03:39:57;;;;;;;71.70;54.40;;;;;;;8.58;100.00;97931.97;109509;1254;66685;-74
2023/04/02 03:42:27;;;;;;;67.30;54.60;;;;;;;8.59;100.00;97934.42;109462;1253;60817;-74
2023/04/02 03:45:01;;;;;;;66.80;52.50;;;;;;;8.59;100.00;97936.20;109482;1253;63753;-74
2023/04/02 03:47:42;;;;;;;65.40;51.60;;;;;;;8.58;100.00;97937.67;109469;1252;58981;-74
2023/04/02 03:50:25;;;;;;;62.50;49.20;;;;;;;8.56;100.00;97939.56;109494;1254;58950;-75
2023/04/02 03:52:52;;;;;;;73.10;54.40;;;;;;;8.56;100.00;97944.54;109533;1252;66809;-74
2023/04/02 03:55:27;;;;;;;72.30;55.90;;;;;;;8.56;100.00;97947.55;109496;1254;59831;-74
2023/04/02 03:58:23;;;;;;;68.70;53.20;;;;;;;8.56;100.00;97954.59;109490;1253;64130;-74
2023/04/02 04:01:11;;;;;;;65.80;52.70;;;;;;;8.56;100.00;97959.73;109502;1252;58937;-74
2023/04/02 04:03:42;;;;;;;65.60;51.60;;;;;;;8.56;100.00;97963.62;109520;1252;59033;-74
2023/04/02 04:06:18;;;;;;;62.60;50.30;;;;;;;8.57;100.00;97961.98;109494;1253;66037;-74
2023/04/02 04:09:17;;;;;;;65.70;49.20;;;;;;;8.55;100.00;97964.21;109472;1253;60810;-74
2023/04/02 04:11:47;;;;;;;61.70;47.50;;;;;;;8.54;100.00;97966.14;109447;1253;63881;-75
2023/04/02 04:14:19;;;;;;;58.40;48.00;;;;;;;8.53;100.00;97967.04;109068;1254;58985;-75
2023/04/02 04:17:03;;;;;;;64.20;49.70;;;;;;;8.54;100.00;97968.96;109509;1253;59030;-75
2023/04/02 04:19:44;;;;;;;63.70;49.00;;;;;;;8.55;100.00;97969.05;109508;1253;67121;-74
2023/04/02 04:22:29;;;;;;;55.60;43.90;;;;;;;8.54;100.00;97973.73;109494;1253;60028;-75
2023/04/02 04:25:02;;;;;;;60.10;46.00;;;;;;;8.51;100.00;97975.69;109103;1252;63946;-75
2023/04/02 04:27:34;;;;;;;53.50;41.80;;;;;;;8.51;100.00;97978.23;109499;1253;59078;-75
2023/04/02 04:30:04;;;;;;;54.60;41.70;;;;;;;8.50;100.00;97982.86;109460;1251;59049;-75
2023/04/02 04:32:37;;;;;;;56.20;42.60;;;;;;;8.50;100.00;97982.88;109485;1252;65894;-75
2023/04/02 04:35:16;;;;;;;55.80;43.50;;;;;;;8.49;100.00;97984.34;109525;1252;59858;-75
2023/04/02 04:37:48;;;;;;;55.80;42.90;;;;;;;8.49;100.00;97983.28;109466;1253;65027;-74
2023/04/02 04:40:30;;;;;;;54.50;42.80;;;;;;;8.49;100.00;97988.06;109455;1251;59119;-75
2023/04/02 04:43:02;;;;;;;58.10;47.00;;;;;;;8.47;100.00;97985.40;109470;1252;58916;-75
2023/04/02 04:45:46;;;;;;;61.30;46.30;;;;;;;8.47;100.00;97988.58;109235;1254;66883;-75
2023/04/02 04:48:20;;;;;;;57.60;43.20;;;;;;;8.46;100.00;97992.92;109510;1252;60733;-75
2023/04/02 04:50:55;;;;;;;53.30;42.10;;;;;;;8.43;100.00;97994.94;109484;1252;64727;-75
2023/04/02 04:53:25;;;;;;;52.40;39.90;;;;;;;8.39;100.00;97995.54;109460;1253;58914;-75
2023/04/02 04:56:01;;;;;;;60.50;41.80;;;;;;;8.38;100.00;97998.29;109106;1252;59055;-74
2023/04/02 04:58:34;;;;;;;53.00;39.40;;;;;;;8.40;100.00;98002.95;109492;1251;66667;-76
2023/04/02 05:01:22;;;;;;;55.00;40.00;;;;;;;8.41;100.00;98003.91;109506;1253;59758;-75
2023/04/02 05:04:05;;;;;;;49.60;39.10;;;;;;;8.41;100.00;98003.89;109474;1252;63808;-75
2023/04/02 05:06:43;;;;;;;48.00;37.70;;;;;;;8.43;100.00;98005.38;109463;1251;58974;-75
2023/04/02 05:09:43;;;;;;;48.20;38.10;;;;;;;8.45;100.00;98008.05;109490;1252;58967;-75
2023/04/02 05:12:22;;;;;;;;;;;;;;;8.46;100.00;98010.95;109472;1252;65688;-75
2023/04/02 05:15:01;;;;;;;45.10;35.00;;;;;;;8.45;100.00;98012.95;109526;1253;61150;-74
2023/04/02 05:17:34;;;;;;;39.50;32.10;;;;;;;8.45;100.00;98016.73;109482;1252;63666;-75
2023/04/02 05:20:09;;;;;;;39.40;32.80;;;;;;;8.43;100.00;98017.03;109457;1251;59083;-75
2023/04/02 05:22:36;;;;;;;36.70;31.00;;;;;;;8.41;100.00;98019.48;109466;1253;59179;-75
2023/04/02 05:25:14;;;;;;;39.50;31.50;;;;;;;8.40;100.00;98022.77;109492;1252;66713;-76
2023/04/02 05:27:48;;;;;;;35.10;29.10;;;;;;;8.39;100.00;98028.49;109488;1252;59711;-74
2023/04/02 05:30:24;;;;;;;33.60;28.50;;;;;;;8.37;100.00;98031.59;109452;1252;64715;-75
2023/04/02 05:33:22;;;;;;;34.80;28.90;;;;;;;8.34;100.00;98033.36;109481;1251;59000;-74
2023/04/02 05:35:56;;;;;;;38.40;30.60;;;;;;;8.34;100.00;98035.14;108710;1260;59084;-74
2023/04/02 05:38:27;;;;;;;36.10;30.60;;;;;;;8.34;100.00;98032.89;108860;1260;67206;-75
2023/04/02 05:41:10;;;;;;;36.20;29.60;;;;;;;8.34;100.00;98034.80;108779;1260;60226;-74
2023/04/02 05:43:42;;;;;;;36.80;31.50;;;;;;;8.37;100.00;98037.24;108839;1260;64821;-74
2023/04/02 05:46:21;;;;;;;36.70;30.30;;;;;;;8.41;100.00;98041.46;108826;1260;59169;-74
2023/04/02 05:48:54;;;;;;;34.40;28.50;;;;;;;8.42;100.00;98037.98;108844;1260;59093;-76
2023/04/02 05:51:30;;;;;;;37.40;30.60;;;;;;;8.44;100.00;98038.79;108835;1260;66964;-74
2023/04/02 05:54:02;;;;;;;37.80;31.20;;;;;;;8.44;100.00;98041.91;108845;1260;60754;-75
2023/04/02 05:56:42;;;;;;;34.80;28.00;;;;;;;8.42;100.00;98040.42;108831;1260;64767;-75
2023/04/02 05:59:17;;;;;;;35.30;29.00;;;;;;;8.40;100.00;98043.77;108772;1260;59088;-74
2023/04/02 06:02:02;;;;;;;34.30;29.50;;;;;;;8.37;100.00;98047.17;108718;1260;59340;-75
2023/04/02 06:04:36;;;;;;;32.50;25.90;;;;;;;8.34;100.00;98049.52;108833;1260;75737;-74
2023/04/02 06:07:07;;;;;;;33.40;27.30;;;;;;;8.30;100.00;98052.96;108620;1264;59747;-74
2023/04/02 06:10:02;;;;;;;31.50;27.00;;;;;;;8.29;100.00;98058.02;108515;1264;65422;-74
2023/04/02 06:12:46;;;;;;;29.60;25.40;;;;;;;8.28;100.00;98062.70;108421;1262;59059;-74
2023/04/02 06:15:14;;;;;;;26.80;22.70;;;;;;;8.27;100.00;98065.42;108793;1262;59170;-74
2023/04/02 06:17:46;;;;;;;33.20;28.00;;;;;;;8.26;100.00;98070.11;108765;1262;66068;-74
2023/04/02 06:20:16;;;;;;;34.40;29.00;;;;;;;8.24;100.00;98073.83;108793;1262;60811;-74
2023/04/02 06:22:47;;;;;;;37.10;30.80;;;;;;;8.20;100.00;98082.23;108720;1262;64882;-73
2023/04/02 06:25:23;;;;;;;39.90;31.00;;;;;;;8.15;100.00;98088.42;108579;1262;59050;-73
2023/04/02 06:27:53;;;;;;;44.60;36.20;;;;;;;8.10;100.00;98100.58;108754;1262;59057;-71
2023/04/02 06:30:26;;;;;;;44.00;34.50;;;;;;;8.07;100.00;98106.48;108786;1262;66105;-71
2023/04/02 06:32:53;;;;;;;45.60;35.00;;;;;;;8.02;100.00;98109.14;108781;1262;61071;-71
2023/04/02 06:35:20;;;;;;;46.70;37.60;;;;;;;7.98;100.00;98115.98;108746;1262;65228;-70
2023/04/02 06:37:51;;;;;;;44.00;33.70;;;;;;;7.94;100.00;98123.85;108780;1259;58960;-69
2023/04/02 06:40:32;;;;;;;44.50;34.40;;;;;;;7.90;100.00;98126.42;108758;1260;59599;-70
2023/04/02 06:43:04;;;;;;;45.00;32.70;;;;;;;7.87;100.00;98126.27;108915;1259;66703;-70
2023/04/02 06:45:38;;;;;;;43.60;32.40;;;;;;;7.85;100.00;98129.45;108883;1260;61111;-71
2023/04/02 06:48:12;;;;;;;40.20;31.10;;;;;;;7.84;100.00;98136.17;108779;1259;63707;-70
2023/04/02 06:51:06;;;;;;;46.60;34.20;;;;;;;7.82;100.00;98139.88;109472;1252;59013;-72
2023/04/02 06:53:40;;;;;;;39.50;29.30;;;;;;;7.80;100.00;98143.20;108901;1259;59062;-73
2023/04/02 06:56:30;;;;;;;42.20;31.10;;;;;;;7.79;100.00;98151.39;109003;1258;66696;-72
2023/04/02 06:58:57;;;;;;;31.40;22.40;;;;;;;7.74;100.00;98158.84;108942;1258;61110;-73
2023/04/02 07:01:28;;;;;;;15.30;12.60;;;;;;;7.63;100.00;98160.63;108903;1258;64722;-73
2023/04/02 07:03:55;;;;;;;11.50;9.80;;;;;;;7.49;100.00;98170.13;108916;1258;59100;-73
2023/04/02 07:06:22;;;;;;;11.80;9.30;;;;;;;7.31;100.00;98177.66;108938;1258;59397;-73
2023/04/02 07:08:49;;;;;;;8.60;7.70;;;;;;;7.17;100.00;98185.13;108967;1258;65706;-73
2023/04/02 07:11:20;;;;;;;8.10;7.30;;;;;;;7.03;100.00;98189.55;108960;1258;59861;-73
2023/04/02 07:13:48;;;;;;;4.00;3.60;;;;;;;6.92;100.00;98197.55;108968;1258;63793;-76
2023/04/02 07:16:18;;;;;;;4.10;3.80;;;;;;;6.78;100.00;98202.65;108986;1258;58993;-74
2023/04/02 07:18:45;;;;;;;3.80;3.50;;;;;;;6.65;100.00;98206.71;108776;1259;59629;-74
2023/04/02 07:21:12;;;;;;;4.00;3.30;;;;;;;6.57;100.00;98219.00;108977;1258;67137;-76
2023/04/02 07:23:39;;;;;;;3.50;3.20;;;;;;;6.44;100.00;98224.40;108984;1258;60826;-74
2023/04/02 07:26:07;;;;;;;3.00;2.70;;;;;;;6.34;100.00;98225.17;108958;1258;63723;-73
2023/04/02 07:28:34;;;;;;;3.60;3.10;;;;;;;6.27;100.00;98232.00;108915;1258;59447;-73
2023/04/02 07:31:00;;;;;;;6.70;4.50;;;;;;;6.21;100.00;98241.91;108946;1258;59944;-73
2023/04/02 07:33:29;;;;;;;7.50;6.70;;;;;;;6.15;100.00;98245.05;108953;1258;66424;-73
2023/04/02 07:35:57;;;;;;;9.80;8.10;;;;;;;6.10;100.00;98246.94;108973;1258;61229;-74
2023/04/02 07:38:24;;;;;;;8.80;7.90;;;;;;;6.03;100.00;98251.83;108740;1259;65118;-74
2023/04/02 07:40:51;;;;;;;8.40;7.60;;;;;;;5.91;100.00;98262.35;108952;1258;59385;-74
2023/04/02 07:43:18;;;;;;;10.10;9.10;;;;;;;5.78;100.00;98267.02;108946;1258;59039;-73
2023/04/02 07:45:44;;;;;;;9.70;8.70;;;;;;;5.66;100.00;98272.80;108954;1258;67310;-73
2023/04/02 07:48:12;;;;;;;9.60;8.30;;;;;;;5.59;100.00;98280.45;108976;1258;60804;-73
2023/04/02 07:50:39;;;;;;;7.00;6.20;;;;;;;5.50;100.00;98286.96;108945;1259;63762;-73
2023/04/02 07:53:07;;;;;;;7.10;6.30;;;;;;;5.39;100.00;98293.79;108929;1258;59024;-73
2023/04/02 07:55:34;;;;;;;6.80;5.90;;;;;;;5.29;100.00;98294.52;108949;1258;59207;-74
2023/04/02 07:58:01;;;;;;;7.40;5.70;;;;;;;5.25;100.00;98300.55;108965;1258;66037;-75
2023/04/02 08:00:28;;;;;;;7.40;5.50;;;;;;;5.20;100.00;98306.98;109005;1258;60994;-74
2023/04/02 08:02:55;;;;;;;5.30;4.80;;;;;;;5.15;100.00;98313.27;108944;1258;63800;-73
2023/04/02 08:05:22;;;;;;;5.50;3.90;;;;;;;5.14;100.00;98317.74;108949;1258;59031;-73
2023/04/02 08:07:54;;;;;;;5.00;4.20;;;;;;;5.11;100.00;98321.21;108793;1258;58920;-73
2023/04/02 08:10:21;;;;;;;5.00;4.50;;;;;;;5.12;100.00;98326.31;109266;1253;66978;-77
2023/04/02 08:12:48;;;;;;;5.70;5.10;;;;;;;5.09;100.00;98332.77;109099;1253;60744;-74
2023/04/02 08:15:16;;;;;;;6.60;6.10;;;;;;;5.11;100.00;98341.67;109503;1253;65201;-74
2023/04/02 08:17:43;;;;;;;6.10;4.60;;;;;;;5.14;100.00;98347.67;109473;1252;59193;-76
2023/04/02 08:20:21;;;;;;;6.40;5.80;;;;;;;5.11;100.00;98351.86;109360;1252;58965;-74
2023/04/02 08:22:48;;;;;;;5.30;4.80;;;;;;;5.11;100.00;98354.86;109509;1252;67230;-75
2023/04/02 08:25:16;;;;;;;6.50;5.90;;;;;;;5.11;100.00;98362.98;109533;1252;61199;-74
2023/04/02 08:27:45;;;;;;;5.30;4.80;;;;;;;5.10;100.00;98371.48;109584;1252;65450;-74
2023/04/02 08:30:13;;;;;;;8.00;6.90;;;;;;;5.07;100.00;98373.05;109474;1253;59252;-75
2023/04/02 08:32:40;;;;;;;7.10;6.20;;;;;;;5.05;100.00;98378.96;109127;1252;59341;-73
2023/04/02 08:35:08;;;;;;;6.80;6.10;;;;;;;5.03;100.00;98384.34;109502;1253;67099;-74
2023/04/02 08:37:35;;;;;;;8.30;7.50;;;;;;;5.02;100.00;98390.91;109533;1253;60148;-74
2023/04/02 08:40:03;;;;;;;8.10;6.80;;;;;;;5.01;100.00;98393.80;109492;1253;64702;-74
2023/04/02 08:42:36;;;;;;;5.90;5.30;;;;;;;5.02;100.00;98395.84;109502;1253;59360;-74
2023/04/02 08:45:09;;;;;;;7.00;6.30;;;;;;;5.04;100.00;98398.39;109163;1252;59178;-74
2023/04/02 08:47:39;;;;;;;5.90;5.30;;;;;;;5.06;100.00;98403.02;109532;1253;66773;-75
2023/04/02 08:50:26;;;;;;;7.00;6.00;;;;;;;5.12;100.00;98406.55;109522;1252;59753;-74
2023/04/02 08:52:53;;;;;;;6.40;5.70;;;;;;;5.16;100.00;98406.19;109490;1253;64172;-74
2023/04/02 08:56:02;;;;;;;7.80;5.20;;;;;;;5.15;100.00;98409.95;109365;1253;59367;-74
2023/04/02 08:58:49;;;;;;;5.90;4.50;;;;;;;5.13;100.00;98423.45;109525;1252;59176;-76
2023/04/02 09:01:31;;;;;;;4.00;3.60;;;;;;;5.06;100.00;98428.38;109324;1252;66699;-74
2023/04/02 09:03:58;;;;;;;5.80;4.60;;;;;;;5.08;100.00;98435.52;109495;1253;61203;-74
2023/04/02 09:06:28;;;;;;;7.20;5.80;;;;;;;5.06;100.00;98442.65;109537;1252;63032;-76
2023/04/02 09:08:55;;;;;;;5.90;5.30;;;;;;;5.03;100.00;98442.44;109298;1254;59398;-75
2023/04/02 09:11:24;;;;;;;7.80;6.10;;;;;;;5.01;100.00;98445.70;109514;1253;58882;-74
2023/04/02 09:14:02;;;;;;;7.60;6.10;;;;;;;5.06;100.00;98454.28;109530;1253;65791;-75
2023/04/02 09:16:53;;;;;;;10.10;9.00;;;;;;;5.03;100.00;98452.86;109504;1252;60756;-75
2023/04/02 09:19:24;;;;;;;9.20;8.30;;;;;;;5.00;100.00;98457.02;108785;1261;64822;-75
2023/04/02 09:22:05;;;;;;;;;;;;;;;5.01;100.00;98461.75;108705;1261;150069;-76
2023/04/02 09:24:33;;;;;;;4.60;4.00;;;;;;;4.94;100.00;98472.48;108817;1261;59102;-76
2023/04/02 09:27:00;;;;;;;6.30;4.80;;;;;;;4.90;100.00;98481.88;108643;1261;66323;-76
2023/04/02 09:29:44;;;;;;;4.00;3.60;;;;;;;4.89;100.00;98482.83;108775;1261;60816;-74
2023/04/02 09:32:36;;;;;;;6.60;5.10;;;;;;;4.89;100.00;98489.30;108703;1262;65012;-74
2023/04/02 09:35:16;;;;;;;4.20;3.80;;;;;;;4.89;100.00;98496.91;108786;1261;59232;-73
2023/04/02 09:37:43;;;;;;;4.30;3.10;;;;;;;4.81;100.00;98505.39;108792;1261;58981;-73
2023/04/02 09:40:18;;;;;;;5.30;4.20;;;;;;;4.74;100.00;98514.52;108767;1261;67136;-74
2023/04/02 09:42:45;;;;;;;5.90;5.10;;;;;;;4.71;100.00;98519.61;108811;1261;60820;-74
2023/04/02 09:45:21;;;;;;;6.10;4.60;;;;;;;4.71;100.00;98523.66;108816;1261;64833;-74
2023/04/02 09:47:56;;;;;;;8.30;6.40;;;;;;;4.72;100.00;98530.34;108714;1262;59021;-74
2023/04/02 09:50:29;;;;;;;7.60;6.20;;;;;;;4.72;100.00;98535.04;108823;1261;58885;-73
2023/04/02 09:52:56;;;;;;;7.30;6.50;;;;;;;4.70;100.00;98545.53;108835;1261;67299;-74
2023/04/02 09:55:26;;;;;;;14.60;9.70;;;;;;;4.68;100.00;98551.26;108704;1262;60765;-74
2023/04/02 09:58:10;;;;;;;13.20;10.10;;;;;;;4.68;100.00;98550.55;109536;1252;65279;-73
2023/04/02 10:00:38;;;;;;;10.90;9.10;;;;;;;4.72;100.00;98556.00;109499;1252;59011;-78
2023/04/02 10:03:26;;;;;;;7.80;7.00;;;;;;;4.79;100.00;98563.38;109141;1252;59026;-76
2023/04/02 10:06:14;;;;;;;9.70;7.80;;;;;;;4.82;100.00;98564.66;109472;1253;67390;-77
2023/04/02 10:08:43;;;;;;;8.90;7.80;;;;;;;4.79;100.00;98561.77;109508;1253;60703;-77
2023/04/02 10:11:15;;;;;;;10.40;9.10;;;;;;;4.80;100.00;98565.63;109406;1252;65009;-76
2023/04/02 10:14:10;;;;;;;12.00;10.30;;;;;;;4.81;100.00;98568.73;109484;1253;59276;-77
2023/04/02 10:16:49;;;;;;;13.00;10.70;;;;;;;4.83;100.00;98574.24;109474;1252;59027;-77
2023/04/02 10:19:39;;;;;;;11.20;10.00;;;;;;;4.79;100.00;98576.03;109526;1252;66816;-75
2023/04/02 10:22:12;;;;;;;;;;;;;;;4.72;100.00;98580.44;109515;1253;59708;-79
2023/04/02 10:24:39;;;;;;;8.00;7.10;;;;;;;4.73;100.00;98584.42;109437;1252;64719;-79
2023/04/02 10:27:16;;;;;;;9.80;8.80;;;;;;;4.75;100.00;98587.48;109478;1252;58951;-78
2023/04/02 10:30:01;;;;;;;11.30;9.00;;;;;;;4.79;100.00;98591.88;109495;1252;59077;-79
2023/04/02 10:32:59;;;;;;;14.40;11.90;;;;;;;4.85;100.00;98595.48;109521;1253;67154;-77
2023/04/02 10:35:45;;;;;;;7.60;6.80;;;;;;;4.89;100.00;98598.77;109499;1253;60147;-76
2023/04/02 10:38:25;;;;;;;11.20;9.90;;;;;;;4.88;100.00;98602.17;109502;1253;63896;-77
2023/04/02 10:41:00;;;;;;;11.00;9.00;;;;;;;4.89;100.00;98605.10;109429;1251;59039;-77
2023/04/02 10:43:33;;;;;;;10.20;9.20;;;;;;;4.91;100.00;98608.91;109488;1252;59054;-77
2023/04/02 10:46:08;;;;;;;11.40;10.00;;;;;;;4.97;100.00;98608.27;109509;1253;66914;-78
2023/04/02 10:48:51;;;;;;;16.30;13.20;;;;;;;4.99;100.00;98611.13;109495;1252;61179;-77
2023/04/02 10:51:33;;;;;;;12.60;11.40;;;;;;;5.00;100.00;98615.48;109481;1251;63807;-77
2023/04/02 10:54:18;;;;;;;12.60;11.40;;;;;;;5.04;100.00;98619.16;109506;1253;59023;-78
2023/04/02 10:56:45;;;;;;;12.90;11.60;;;;;;;5.05;100.00;98619.09;109526;1253;59009;-78
2023/04/02 10:59:31;;;;;;;20.90;18.80;;;;;;;5.05;100.00;98623.15;109539;1253;66655;-78
2023/04/02 11:02:01;;;;;;;15.70;14.10;;;;;;;5.03;100.00;98626.10;109521;1252;59821;-78
2023/04/02 11:04:40;;;;;;;;;;;;;;;4.93;100.00;98632.19;109542;1253;65375;-78
2023/04/02 11:07:16;;;;;;;23.40;21.20;;;;;;;4.85;100.00;98630.70;109476;1251;59271;-78
2023/04/02 11:09:47;;;;;;;27.30;24.60;;;;;;;4.79;100.00;98638.88;109571;1250;59016;-78
2023/04/02 11:12:24;;;;;;;21.90;19.70;;;;;;;4.74;100.00;98642.14;109357;1249;65719;-77
2023/04/02 11:14:53;;;;;;;19.60;17.70;;;;;;;4.69;100.00;98649.39;109727;1250;60784;-79
2023/04/02 11:17:20;;;;;;;21.90;19.70;;;;;;;4.67;100.00;98649.54;109663;1250;65156;-78
2023/04/02 11:19:46;;;;;;;29.00;26.10;;;;;;;4.65;100.00;98651.35;109475;1254;59035;-78
2023/04/02 11:22:21;;;;;;;27.00;24.40;;;;;;;4.63;100.00;98654.78;109727;1250;58998;-79
2023/04/02 11:24:51;;;;;;;28.90;22.90;;;;;;;4.56;100.00;98658.80;109704;1250;67011;-79
2023/04/02 11:27:25;;;;;;;23.10;20.20;;;;;;;4.52;100.00;98663.60;109711;1250;59211;-79
2023/04/02 11:30:06;;;;;;;23.20;21.00;;;;;;;4.48;100.00;98667.30;109661;1250;65234;-78
2023/04/02 11:32:41;;;;;;;17.80;16.00;;;;;;;4.52;100.00;98670.12;109673;1249;59024;-78
2023/04/02 11:35:28;;;;;;;17.60;15.70;;;;;;;4.57;100.00;98668.09;109740;1250;59099;-77
2023/04/02 11:38:19;;;;;;;15.60;13.70;;;;;;;4.67;100.00;98674.49;109713;1250;65691;-79
2023/04/02 11:40:56;;;;;;;16.50;14.70;;;;;;;4.77;100.00;98680.51;109329;1250;59992;-79
2023/04/02 11:43:32;;;;;;;16.40;14.70;;;;;;;4.85;100.00;98679.42;109499;1251;65189;-79
2023/04/02 11:46:25;;;;;;;14.70;13.20;;;;;;;4.84;100.00;98684.73;109660;1250;58990;-79
2023/04/02 11:48:53;;;;;;;16.90;14.90;;;;;;;4.79;100.00;98687.42;109714;1250;58982;-79
2023/04/02 11:51:21;;;;;;;15.50;13.90;;;;;;;4.77;100.00;98691.24;109649;1250;67113;-79